sensor_id;sensor_type;location;lat;lon;timestamp;P1;durP1;ratioP1;P2;durP2;ratioP2
39140;SDS011;24875;48.436;10.298;2022-10-16T00:02:21;2.15;;;1.40;;
39140;SDS011;24875;48.436;10.298;2022-10-16T00:04:48;3.00;;;1.65;;
39140;SDS011;24875;48.436;10.298;2022-10-16T00:07:14;3.45;;;1.65;;
39140;SDS011;24875;48.436;10.298;2022-10-16T00:09:41;3.72;;;1.50;;
39140;SDS011;24875;48.436;10.298;2022-10-16T00:12:07;5.30;;;1.95;;
39140;SDS011;24875;48.436;10.298;2022-10-16T00:14:34;2.13;;;1.42;;
39140;SDS011;24875;48.436;10.298;2022-10-16T00:17:00;3.13;;;1.60;;
39140;SDS011;24875;48.436;10.298;2022-10-16T00:19:28;4.68;;;1.85;;
39140;SDS011;24875;48.436;10.298;2022-10-16T00:21:55;5.13;;;1.77;;
39140;SDS011;24875;48.436;10.298;2022-10-16T00:24:21;3.78;;;2.00;;
39140;SDS011;24875;48.436;10.298;2022-10-16T00:26:49;3.83;;;1.63;;
39140;SDS011;24875;48.436;10.298;2022-10-16T00:29:15;4.85;;;1.70;;
39140;SDS011;24875;48.436;10.298;2022-10-16T00:31:42;3.55;;;1.60;;
39140;SDS011;24875;48.436;10.298;2022-10-16T00:34:08;3.97;;;1.77;;
39140;SDS011;24875;48.436;10.298;2022-10-16T00:36:36;5.93;;;1.92;;
39140;SDS011;24875;48.436;10.298;2022-10-16T00:39:03;8.82;;;1.77;;
39140;SDS011;24875;48.436;10.298;2022-10-16T00:41:30;4.18;;;2.10;;
39140;SDS011;24875;48.436;10.298;2022-10-16T00:43:57;6.25;;;2.40;;
39140;SDS011;24875;48.436;10.298;2022-10-16T00:46:26;2.67;;;1.63;;
39140;SDS011;24875;48.436;10.298;2022-10-16T00:48:56;4.82;;;1.83;;
39140;SDS011;24875;48.436;10.298;2022-10-16T00:51:28;2.88;;;1.38;;
39140;SDS011;24875;48.436;10.298;2022-10-16T00:53:59;2.88;;;1.40;;
39140;SDS011;24875;48.436;10.298;2022-10-16T00:56:28;2.67;;;1.30;;
39140;SDS011;24875;48.436;10.298;2022-10-16T00:58:54;2.33;;;1.45;;
39140;SDS011;24875;48.436;10.298;2022-10-16T01:01:21;2.30;;;1.30;;
39140;SDS011;24875;48.436;10.298;2022-10-16T01:03:48;7.05;;;1.50;;
39140;SDS011;24875;48.436;10.298;2022-10-16T01:06:19;7.63;;;1.88;;
39140;SDS011;24875;48.436;10.298;2022-10-16T01:08:53;4.47;;;1.40;;
39140;SDS011;24875;48.436;10.298;2022-10-16T01:11:28;3.08;;;1.35;;
39140;SDS011;24875;48.436;10.298;2022-10-16T01:14:02;3.38;;;1.23;;
39140;SDS011;24875;48.436;10.298;2022-10-16T01:16:36;2.35;;;1.60;;
39140;SDS011;24875;48.436;10.298;2022-10-16T01:19:11;3.25;;;1.40;;
39140;SDS011;24875;48.436;10.298;2022-10-16T01:21:42;3.30;;;1.38;;
39140;SDS011;24875;48.436;10.298;2022-10-16T01:24:15;2.38;;;1.50;;
39140;SDS011;24875;48.436;10.298;2022-10-16T01:29:36;2.72;;;1.42;;
39140;SDS011;24875;48.436;10.298;2022-10-16T01:32:09;1.85;;;1.20;;
39140;SDS011;24875;48.436;10.298;2022-10-16T01:34:41;3.67;;;1.48;;
39140;SDS011;24875;48.436;10.298;2022-10-16T01:37:14;4.90;;;1.25;;
39140;SDS011;24875;48.436;10.298;2022-10-16T01:39:45;2.95;;;1.75;;
39140;SDS011;24875;48.436;10.298;2022-10-16T01:42:18;5.38;;;1.70;;
39140;SDS011;24875;48.436;10.298;2022-10-16T01:44:48;4.10;;;1.25;;
39140;SDS011;24875;48.436;10.298;2022-10-16T01:47:17;5.18;;;1.50;;
39140;SDS011;24875;48.436;10.298;2022-10-16T01:49:45;6.13;;;1.50;;
39140;SDS011;24875;48.436;10.298;2022-10-16T01:52:14;7.25;;;1.73;;
39140;SDS011;24875;48.436;10.298;2022-10-16T01:54:45;3.60;;;1.27;;
39140;SDS011;24875;48.436;10.298;2022-10-16T01:57:15;6.28;;;1.50;;
39140;SDS011;24875;48.436;10.298;2022-10-16T01:59:46;3.70;;;1.35;;
39140;SDS011;24875;48.436;10.298;2022-10-16T02:02:17;2.55;;;1.42;;
39140;SDS011;24875;48.436;10.298;2022-10-16T02:04:45;5.88;;;1.48;;
39140;SDS011;24875;48.436;10.298;2022-10-16T02:07:15;4.88;;;1.58;;
39140;SDS011;24875;48.436;10.298;2022-10-16T02:09:42;3.83;;;1.80;;
39140;SDS011;24875;48.436;10.298;2022-10-16T02:12:10;6.15;;;1.40;;
39140;SDS011;24875;48.436;10.298;2022-10-16T02:14:42;5.15;;;2.25;;
39140;SDS011;24875;48.436;10.298;2022-10-16T02:17:12;4.88;;;1.95;;
39140;SDS011;24875;48.436;10.298;2022-10-16T02:19:40;6.10;;;1.90;;
39140;SDS011;24875;48.436;10.298;2022-10-16T02:22:08;5.22;;;1.30;;
39140;SDS011;24875;48.436;10.298;2022-10-16T02:24:43;2.80;;;1.70;;
39140;SDS011;24875;48.436;10.298;2022-10-16T02:27:18;5.95;;;1.80;;
39140;SDS011;24875;48.436;10.298;2022-10-16T02:29:52;8.25;;;1.70;;
39140;SDS011;24875;48.436;10.298;2022-10-16T02:32:24;1.90;;;1.27;;
39140;SDS011;24875;48.436;10.298;2022-10-16T02:34:56;3.95;;;1.20;;
39140;SDS011;24875;48.436;10.298;2022-10-16T02:37:25;2.13;;;1.50;;
39140;SDS011;24875;48.436;10.298;2022-10-16T02:39:53;4.47;;;1.40;;
39140;SDS011;24875;48.436;10.298;2022-10-16T02:42:20;4.85;;;1.75;;
39140;SDS011;24875;48.436;10.298;2022-10-16T02:44:54;2.47;;;1.38;;
39140;SDS011;24875;48.436;10.298;2022-10-16T02:47:21;3.28;;;2.00;;
39140;SDS011;24875;48.436;10.298;2022-10-16T02:49:47;8.20;;;1.60;;
39140;SDS011;24875;48.436;10.298;2022-10-16T02:52:14;2.33;;;1.73;;
39140;SDS011;24875;48.436;10.298;2022-10-16T02:54:40;2.83;;;1.55;;
39140;SDS011;24875;48.436;10.298;2022-10-16T02:57:07;3.22;;;1.90;;
39140;SDS011;24875;48.436;10.298;2022-10-16T02:59:34;4.20;;;1.65;;
39140;SDS011;24875;48.436;10.298;2022-10-16T03:02:02;4.03;;;1.83;;
39140;SDS011;24875;48.436;10.298;2022-10-16T03:04:28;6.88;;;1.70;;
39140;SDS011;24875;48.436;10.298;2022-10-16T03:06:55;3.50;;;1.67;;
39140;SDS011;24875;48.436;10.298;2022-10-16T03:09:21;4.57;;;1.70;;
39140;SDS011;24875;48.436;10.298;2022-10-16T03:11:48;7.22;;;1.73;;
39140;SDS011;24875;48.436;10.298;2022-10-16T03:14:15;3.25;;;1.70;;
39140;SDS011;24875;48.436;10.298;2022-10-16T03:16:41;3.28;;;1.83;;
39140;SDS011;24875;48.436;10.298;2022-10-16T03:19:09;2.85;;;1.70;;
39140;SDS011;24875;48.436;10.298;2022-10-16T03:21:36;3.60;;;1.98;;
39140;SDS011;24875;48.436;10.298;2022-10-16T03:24:02;2.65;;;1.88;;
39140;SDS011;24875;48.436;10.298;2022-10-16T03:26:29;4.32;;;1.67;;
39140;SDS011;24875;48.436;10.298;2022-10-16T03:28:56;6.00;;;1.92;;
39140;SDS011;24875;48.436;10.298;2022-10-16T03:31:22;5.13;;;1.80;;
39140;SDS011;24875;48.436;10.298;2022-10-16T03:33:49;4.60;;;1.90;;
39140;SDS011;24875;48.436;10.298;2022-10-16T03:36:17;9.95;;;1.90;;
39140;SDS011;24875;48.436;10.298;2022-10-16T03:38:43;8.93;;;1.92;;
39140;SDS011;24875;48.436;10.298;2022-10-16T03:41:10;5.72;;;1.85;;
39140;SDS011;24875;48.436;10.298;2022-10-16T03:43:36;3.88;;;2.10;;
39140;SDS011;24875;48.436;10.298;2022-10-16T03:46:04;2.83;;;1.85;;
39140;SDS011;24875;48.436;10.298;2022-10-16T03:48:31;3.10;;;1.83;;
39140;SDS011;24875;48.436;10.298;2022-10-16T03:50:58;4.50;;;1.48;;
39140;SDS011;24875;48.436;10.298;2022-10-16T03:53:26;5.53;;;1.70;;
39140;SDS011;24875;48.436;10.298;2022-10-16T03:55:52;4.30;;;1.98;;
39140;SDS011;24875;48.436;10.298;2022-10-16T03:58:19;6.28;;;1.90;;
39140;SDS011;24875;48.436;10.298;2022-10-16T04:00:46;7.57;;;1.88;;
39140;SDS011;24875;48.436;10.298;2022-10-16T04:03:13;3.85;;;1.80;;
39140;SDS011;24875;48.436;10.298;2022-10-16T04:05:40;2.50;;;1.75;;
39140;SDS011;24875;48.436;10.298;2022-10-16T04:08:07;3.53;;;1.73;;
39140;SDS011;24875;48.436;10.298;2022-10-16T04:10:35;3.60;;;2.00;;
39140;SDS011;24875;48.436;10.298;2022-10-16T04:13:01;9.48;;;1.88;;
39140;SDS011;24875;48.436;10.298;2022-10-16T04:15:28;2.90;;;1.65;;
39140;SDS011;24875;48.436;10.298;2022-10-16T04:17:55;6.68;;;1.80;;
39140;SDS011;24875;48.436;10.298;2022-10-16T04:20:21;3.17;;;1.85;;
39140;SDS011;24875;48.436;10.298;2022-10-16T04:22:48;6.65;;;1.88;;
39140;SDS011;24875;48.436;10.298;2022-10-16T04:25:14;5.03;;;1.73;;
39140;SDS011;24875;48.436;10.298;2022-10-16T04:27:42;3.28;;;1.77;;
39140;SDS011;24875;48.436;10.298;2022-10-16T04:30:09;9.43;;;2.08;;
39140;SDS011;24875;48.436;10.298;2022-10-16T04:32:36;6.43;;;2.25;;
39140;SDS011;24875;48.436;10.298;2022-10-16T04:35:03;4.13;;;1.98;;
39140;SDS011;24875;48.436;10.298;2022-10-16T04:37:30;8.32;;;1.77;;
39140;SDS011;24875;48.436;10.298;2022-10-16T04:39:56;3.25;;;1.58;;
39140;SDS011;24875;48.436;10.298;2022-10-16T04:42:23;2.03;;;1.60;;
39140;SDS011;24875;48.436;10.298;2022-10-16T04:44:51;7.78;;;1.80;;
39140;SDS011;24875;48.436;10.298;2022-10-16T04:47:18;1.98;;;1.48;;
39140;SDS011;24875;48.436;10.298;2022-10-16T04:49:44;2.53;;;1.50;;
39140;SDS011;24875;48.436;10.298;2022-10-16T04:52:11;5.32;;;1.60;;
39140;SDS011;24875;48.436;10.298;2022-10-16T04:54:37;11.07;;;1.75;;
39140;SDS011;24875;48.436;10.298;2022-10-16T04:57:04;6.07;;;2.47;;
39140;SDS011;24875;48.436;10.298;2022-10-16T04:59:31;2.33;;;1.58;;
39140;SDS011;24875;48.436;10.298;2022-10-16T05:01:59;6.25;;;1.33;;
39140;SDS011;24875;48.436;10.298;2022-10-16T05:04:25;8.52;;;1.50;;
39140;SDS011;24875;48.436;10.298;2022-10-16T05:06:52;2.50;;;1.60;;
39140;SDS011;24875;48.436;10.298;2022-10-16T05:09:18;4.05;;;1.63;;
39140;SDS011;24875;48.436;10.298;2022-10-16T05:11:45;2.10;;;1.52;;
39140;SDS011;24875;48.436;10.298;2022-10-16T05:14:12;5.68;;;1.73;;
39140;SDS011;24875;48.436;10.298;2022-10-16T05:16:38;5.85;;;1.75;;
39140;SDS011;24875;48.436;10.298;2022-10-16T05:19:06;10.20;;;1.90;;
39140;SDS011;24875;48.436;10.298;2022-10-16T05:21:33;7.82;;;1.75;;
39140;SDS011;24875;48.436;10.298;2022-10-16T05:23:59;3.92;;;2.00;;
39140;SDS011;24875;48.436;10.298;2022-10-16T05:26:26;2.70;;;2.00;;
39140;SDS011;24875;48.436;10.298;2022-10-16T05:28:52;7.28;;;1.92;;
39140;SDS011;24875;48.436;10.298;2022-10-16T05:31:19;1.98;;;1.63;;
39140;SDS011;24875;48.436;10.298;2022-10-16T05:33:46;4.97;;;2.13;;
39140;SDS011;24875;48.436;10.298;2022-10-16T05:36:14;2.70;;;1.77;;
39140;SDS011;24875;48.436;10.298;2022-10-16T05:38:40;3.28;;;2.08;;
39140;SDS011;24875;48.436;10.298;2022-10-16T05:41:07;3.85;;;2.80;;
39140;SDS011;24875;48.436;10.298;2022-10-16T05:43:34;7.28;;;2.40;;
39140;SDS011;24875;48.436;10.298;2022-10-16T05:46:03;17.30;;;2.17;;
39140;SDS011;24875;48.436;10.298;2022-10-16T05:48:31;6.30;;;2.20;;
39140;SDS011;24875;48.436;10.298;2022-10-16T05:50:59;3.47;;;1.88;;
39140;SDS011;24875;48.436;10.298;2022-10-16T05:53:28;6.60;;;1.75;;
39140;SDS011;24875;48.436;10.298;2022-10-16T05:55:57;8.02;;;1.80;;
39140;SDS011;24875;48.436;10.298;2022-10-16T05:58:24;4.07;;;1.77;;
39140;SDS011;24875;48.436;10.298;2022-10-16T06:00:55;9.73;;;1.80;;
39140;SDS011;24875;48.436;10.298;2022-10-16T06:03:22;2.60;;;1.58;;
39140;SDS011;24875;48.436;10.298;2022-10-16T06:05:49;14.65;;;1.60;;
39140;SDS011;24875;48.436;10.298;2022-10-16T06:08:16;1.95;;;1.52;;
39140;SDS011;24875;48.436;10.298;2022-10-16T06:10:44;5.40;;;1.65;;
39140;SDS011;24875;48.436;10.298;2022-10-16T06:13:11;4.63;;;2.22;;
39140;SDS011;24875;48.436;10.298;2022-10-16T06:15:38;6.68;;;2.10;;
39140;SDS011;24875;48.436;10.298;2022-10-16T06:18:06;2.67;;;1.50;;
39140;SDS011;24875;48.436;10.298;2022-10-16T06:20:33;3.95;;;1.60;;
39140;SDS011;24875;48.436;10.298;2022-10-16T06:22:59;4.07;;;1.77;;
39140;SDS011;24875;48.436;10.298;2022-10-16T06:25:26;4.25;;;2.35;;
39140;SDS011;24875;48.436;10.298;2022-10-16T06:27:54;9.30;;;2.70;;
39140;SDS011;24875;48.436;10.298;2022-10-16T06:30:20;6.95;;;2.45;;
39140;SDS011;24875;48.436;10.298;2022-10-16T06:32:47;5.80;;;2.63;;
39140;SDS011;24875;48.436;10.298;2022-10-16T06:35:13;7.68;;;2.58;;
39140;SDS011;24875;48.436;10.298;2022-10-16T06:37:40;4.78;;;2.47;;
39140;SDS011;24875;48.436;10.298;2022-10-16T06:40:07;7.63;;;3.35;;
39140;SDS011;24875;48.436;10.298;2022-10-16T06:42:34;8.43;;;3.60;;
39140;SDS011;24875;48.436;10.298;2022-10-16T06:45:02;9.40;;;3.40;;
39140;SDS011;24875;48.436;10.298;2022-10-16T06:47:29;9.48;;;2.88;;
39140;SDS011;24875;48.436;10.298;2022-10-16T06:49:55;6.03;;;3.40;;
39140;SDS011;24875;48.436;10.298;2022-10-16T06:52:22;7.10;;;3.55;;
39140;SDS011;24875;48.436;10.298;2022-10-16T06:54:49;4.82;;;2.88;;
39140;SDS011;24875;48.436;10.298;2022-10-16T06:57:16;8.98;;;3.55;;
39140;SDS011;24875;48.436;10.298;2022-10-16T06:59:42;12.80;;;2.50;;
39140;SDS011;24875;48.436;10.298;2022-10-16T07:02:10;6.97;;;2.95;;
39140;SDS011;24875;48.436;10.298;2022-10-16T07:04:37;4.28;;;2.40;;
39140;SDS011;24875;48.436;10.298;2022-10-16T07:07:03;9.02;;;3.63;;
39140;SDS011;24875;48.436;10.298;2022-10-16T07:09:30;7.75;;;3.22;;
39140;SDS011;24875;48.436;10.298;2022-10-16T07:11:57;11.35;;;3.70;;
39140;SDS011;24875;48.436;10.298;2022-10-16T07:14:23;7.30;;;3.42;;
39140;SDS011;24875;48.436;10.298;2022-10-16T07:16:50;12.35;;;3.88;;
39140;SDS011;24875;48.436;10.298;2022-10-16T07:19:18;11.40;;;4.28;;
39140;SDS011;24875;48.436;10.298;2022-10-16T07:21:44;9.57;;;4.13;;
39140;SDS011;24875;48.436;10.298;2022-10-16T07:24:11;7.60;;;3.35;;
39140;SDS011;24875;48.436;10.298;2022-10-16T07:26:40;6.78;;;2.72;;
39140;SDS011;24875;48.436;10.298;2022-10-16T07:29:12;6.82;;;2.78;;
39140;SDS011;24875;48.436;10.298;2022-10-16T07:31:39;14.15;;;3.83;;
39140;SDS011;24875;48.436;10.298;2022-10-16T07:34:06;8.98;;;3.50;;
39140;SDS011;24875;48.436;10.298;2022-10-16T07:36:34;12.75;;;3.90;;
39140;SDS011;24875;48.436;10.298;2022-10-16T07:39:00;9.05;;;3.63;;
39140;SDS011;24875;48.436;10.298;2022-10-16T07:41:27;6.47;;;2.72;;
39140;SDS011;24875;48.436;10.298;2022-10-16T07:43:54;9.73;;;3.00;;
39140;SDS011;24875;48.436;10.298;2022-10-16T07:46:22;11.55;;;2.78;;
39140;SDS011;24875;48.436;10.298;2022-10-16T07:48:49;13.82;;;2.97;;
39140;SDS011;24875;48.436;10.298;2022-10-16T07:51:17;4.97;;;2.15;;
39140;SDS011;24875;48.436;10.298;2022-10-16T07:53:47;5.38;;;2.50;;
39140;SDS011;24875;48.436;10.298;2022-10-16T07:56:14;6.47;;;2.60;;
39140;SDS011;24875;48.436;10.298;2022-10-16T07:58:42;5.38;;;2.47;;
39140;SDS011;24875;48.436;10.298;2022-10-16T08:01:10;12.10;;;5.18;;
39140;SDS011;24875;48.436;10.298;2022-10-16T08:03:38;17.70;;;6.53;;
39140;SDS011;24875;48.436;10.298;2022-10-16T08:06:07;17.63;;;7.25;;
39140;SDS011;24875;48.436;10.298;2022-10-16T08:08:33;10.27;;;3.90;;
39140;SDS011;24875;48.436;10.298;2022-10-16T08:11:01;12.63;;;4.95;;
39140;SDS011;24875;48.436;10.298;2022-10-16T08:13:29;7.00;;;2.88;;
39140;SDS011;24875;48.436;10.298;2022-10-16T08:15:56;4.95;;;1.85;;
39140;SDS011;24875;48.436;10.298;2022-10-16T08:18:23;5.35;;;2.80;;
39140;SDS011;24875;48.436;10.298;2022-10-16T08:20:54;4.65;;;2.42;;
39140;SDS011;24875;48.436;10.298;2022-10-16T08:23:21;3.67;;;2.40;;
39140;SDS011;24875;48.436;10.298;2022-10-16T08:25:48;3.42;;;2.17;;
39140;SDS011;24875;48.436;10.298;2022-10-16T08:28:16;4.68;;;2.10;;
39140;SDS011;24875;48.436;10.298;2022-10-16T08:30:42;7.22;;;1.77;;
39140;SDS011;24875;48.436;10.298;2022-10-16T08:33:09;3.13;;;1.98;;
39140;SDS011;24875;48.436;10.298;2022-10-16T08:35:36;5.95;;;2.00;;
39140;SDS011;24875;48.436;10.298;2022-10-16T08:38:03;3.92;;;1.67;;
39140;SDS011;24875;48.436;10.298;2022-10-16T08:40:30;3.33;;;2.10;;
39140;SDS011;24875;48.436;10.298;2022-10-16T08:43:12;4.40;;;2.13;;
39140;SDS011;24875;48.436;10.298;2022-10-16T08:46:02;6.82;;;2.55;;
39140;SDS011;24875;48.436;10.298;2022-10-16T08:48:43;4.57;;;2.22;;
39140;SDS011;24875;48.436;10.298;2022-10-16T08:51:14;6.68;;;2.35;;
39140;SDS011;24875;48.436;10.298;2022-10-16T08:53:49;4.10;;;2.13;;
39140;SDS011;24875;48.436;10.298;2022-10-16T08:56:18;4.85;;;2.17;;
39140;SDS011;24875;48.436;10.298;2022-10-16T08:58:46;5.18;;;2.40;;
39140;SDS011;24875;48.436;10.298;2022-10-16T09:01:15;4.05;;;2.17;;
39140;SDS011;24875;48.436;10.298;2022-10-16T09:03:51;7.43;;;3.03;;
39140;SDS011;24875;48.436;10.298;2022-10-16T09:06:44;4.82;;;2.42;;
39140;SDS011;24875;48.436;10.298;2022-10-16T09:09:35;4.30;;;2.47;;
39140;SDS011;24875;48.436;10.298;2022-10-16T09:12:15;8.52;;;2.03;;
39140;SDS011;24875;48.436;10.298;2022-10-16T09:17:41;5.00;;;2.00;;
39140;SDS011;24875;48.436;10.298;2022-10-16T09:20:19;3.65;;;2.28;;
39140;SDS011;24875;48.436;10.298;2022-10-16T09:22:55;8.00;;;2.13;;
39140;SDS011;24875;48.436;10.298;2022-10-16T09:25:36;3.45;;;2.20;;
39140;SDS011;24875;48.436;10.298;2022-10-16T09:28:05;5.47;;;2.97;;
39140;SDS011;24875;48.436;10.298;2022-10-16T09:30:35;6.53;;;2.33;;
39140;SDS011;24875;48.436;10.298;2022-10-16T09:33:03;4.68;;;2.35;;
39140;SDS011;24875;48.436;10.298;2022-10-16T09:35:32;12.10;;;2.78;;
39140;SDS011;24875;48.436;10.298;2022-10-16T09:38:02;5.30;;;2.45;;
39140;SDS011;24875;48.436;10.298;2022-10-16T09:40:30;4.45;;;2.30;;
39140;SDS011;24875;48.436;10.298;2022-10-16T09:43:01;6.00;;;3.17;;
39140;SDS011;24875;48.436;10.298;2022-10-16T09:45:32;6.25;;;4.03;;
39140;SDS011;24875;48.436;10.298;2022-10-16T09:48:00;7.47;;;3.30;;
39140;SDS011;24875;48.436;10.298;2022-10-16T09:50:36;4.25;;;2.15;;
39140;SDS011;24875;48.436;10.298;2022-10-16T09:53:04;8.30;;;2.03;;
39140;SDS011;24875;48.436;10.298;2022-10-16T09:55:31;5.65;;;2.22;;
39140;SDS011;24875;48.436;10.298;2022-10-16T09:57:58;3.38;;;2.30;;
39140;SDS011;24875;48.436;10.298;2022-10-16T10:00:25;3.25;;;1.80;;
39140;SDS011;24875;48.436;10.298;2022-10-16T10:02:52;15.63;;;7.22;;
39140;SDS011;24875;48.436;10.298;2022-10-16T10:05:21;5.28;;;2.35;;
39140;SDS011;24875;48.436;10.298;2022-10-16T10:07:54;4.78;;;2.17;;
39140;SDS011;24875;48.436;10.298;2022-10-16T10:10:24;5.07;;;1.60;;
39140;SDS011;24875;48.436;10.298;2022-10-16T10:12:51;4.03;;;1.70;;
39140;SDS011;24875;48.436;10.298;2022-10-16T10:15:19;5.88;;;2.00;;
39140;SDS011;24875;48.436;10.298;2022-10-16T10:17:47;3.08;;;1.80;;
39140;SDS011;24875;48.436;10.298;2022-10-16T10:20:23;7.07;;;2.05;;
39140;SDS011;24875;48.436;10.298;2022-10-16T10:22:51;7.63;;;2.10;;
39140;SDS011;24875;48.436;10.298;2022-10-16T10:25:19;6.53;;;2.10;;
39140;SDS011;24875;48.436;10.298;2022-10-16T10:28:13;3.63;;;1.85;;
39140;SDS011;24875;48.436;10.298;2022-10-16T10:30:49;5.82;;;1.58;;
39140;SDS011;24875;48.436;10.298;2022-10-16T10:33:25;3.33;;;1.58;;
39140;SDS011;24875;48.436;10.298;2022-10-16T10:36:00;3.67;;;1.90;;
39140;SDS011;24875;48.436;10.298;2022-10-16T10:38:38;3.33;;;1.65;;
39140;SDS011;24875;48.436;10.298;2022-10-16T10:41:20;2.60;;;1.70;;
39140;SDS011;24875;48.436;10.298;2022-10-16T10:44:02;8.07;;;1.90;;
39140;SDS011;24875;48.436;10.298;2022-10-16T10:46:34;5.72;;;2.00;;
39140;SDS011;24875;48.436;10.298;2022-10-16T10:49:08;3.78;;;1.90;;
39140;SDS011;24875;48.436;10.298;2022-10-16T10:51:47;4.07;;;1.50;;
39140;SDS011;24875;48.436;10.298;2022-10-16T10:54:25;5.45;;;1.52;;
39140;SDS011;24875;48.436;10.298;2022-10-16T10:56:57;3.83;;;1.60;;
39140;SDS011;24875;48.436;10.298;2022-10-16T11:02:35;5.65;;;1.50;;
39140;SDS011;24875;48.436;10.298;2022-10-16T11:05:16;4.15;;;1.70;;
39140;SDS011;24875;48.436;10.298;2022-10-16T11:07:52;2.92;;;1.77;;
39140;SDS011;24875;48.436;10.298;2022-10-16T11:10:24;3.88;;;1.83;;
39140;SDS011;24875;48.436;10.298;2022-10-16T11:12:55;5.50;;;1.90;;
39140;SDS011;24875;48.436;10.298;2022-10-16T11:15:29;2.97;;;1.73;;
39140;SDS011;24875;48.436;10.298;2022-10-16T11:18:05;5.40;;;2.60;;
39140;SDS011;24875;48.436;10.298;2022-10-16T11:20:34;5.03;;;1.83;;
39140;SDS011;24875;48.436;10.298;2022-10-16T11:23:10;3.63;;;1.83;;
39140;SDS011;24875;48.436;10.298;2022-10-16T11:25:40;5.63;;;1.70;;
39140;SDS011;24875;48.436;10.298;2022-10-16T11:28:10;3.28;;;1.83;;
39140;SDS011;24875;48.436;10.298;2022-10-16T11:30:41;2.67;;;1.63;;
39140;SDS011;24875;48.436;10.298;2022-10-16T11:33:19;5.68;;;1.92;;
39140;SDS011;24875;48.436;10.298;2022-10-16T11:35:58;6.45;;;1.60;;
39140;SDS011;24875;48.436;10.298;2022-10-16T11:38:32;2.30;;;1.70;;
39140;SDS011;24875;48.436;10.298;2022-10-16T11:41:08;2.55;;;1.55;;
39140;SDS011;24875;48.436;10.298;2022-10-16T11:43:43;5.47;;;1.70;;
39140;SDS011;24875;48.436;10.298;2022-10-16T11:46:18;2.45;;;1.55;;
39140;SDS011;24875;48.436;10.298;2022-10-16T11:48:49;5.53;;;2.00;;
39140;SDS011;24875;48.436;10.298;2022-10-16T11:51:21;4.85;;;1.58;;
39140;SDS011;24875;48.436;10.298;2022-10-16T11:53:59;3.35;;;1.67;;
39140;SDS011;24875;48.436;10.298;2022-10-16T11:56:31;3.30;;;1.63;;
39140;SDS011;24875;48.436;10.298;2022-10-16T11:59:02;3.15;;;1.75;;
39140;SDS011;24875;48.436;10.298;2022-10-16T12:01:33;2.35;;;1.63;;
39140;SDS011;24875;48.436;10.298;2022-10-16T12:04:14;12.50;;;3.15;;
39140;SDS011;24875;48.436;10.298;2022-10-16T12:06:48;4.47;;;2.08;;
39140;SDS011;24875;48.436;10.298;2022-10-16T12:09:21;2.95;;;1.73;;
39140;SDS011;24875;48.436;10.298;2022-10-16T12:11:50;2.97;;;1.60;;
39140;SDS011;24875;48.436;10.298;2022-10-16T12:14:19;2.60;;;1.38;;
39140;SDS011;24875;48.436;10.298;2022-10-16T12:17:02;6.45;;;1.40;;
39140;SDS011;24875;48.436;10.298;2022-10-16T12:19:31;3.30;;;1.55;;
39140;SDS011;24875;48.436;10.298;2022-10-16T12:21:59;2.78;;;1.55;;
39140;SDS011;24875;48.436;10.298;2022-10-16T12:24:35;1.90;;;1.50;;
39140;SDS011;24875;48.436;10.298;2022-10-16T12:27:04;1.80;;;1.20;;
39140;SDS011;24875;48.436;10.298;2022-10-16T12:29:34;3.92;;;1.75;;
39140;SDS011;24875;48.436;10.298;2022-10-16T12:32:04;5.50;;;1.27;;
39140;SDS011;24875;48.436;10.298;2022-10-16T12:34:35;6.20;;;1.63;;
39140;SDS011;24875;48.436;10.298;2022-10-16T12:37:08;2.78;;;1.50;;
39140;SDS011;24875;48.436;10.298;2022-10-16T12:39:40;6.78;;;1.67;;
39140;SDS011;24875;48.436;10.298;2022-10-16T12:42:19;3.20;;;1.63;;
39140;SDS011;24875;48.436;10.298;2022-10-16T12:44:48;4.93;;;1.80;;
39140;SDS011;24875;48.436;10.298;2022-10-16T12:47:21;4.47;;;1.70;;
39140;SDS011;24875;48.436;10.298;2022-10-16T12:49:51;3.35;;;1.20;;
39140;SDS011;24875;48.436;10.298;2022-10-16T12:52:26;6.00;;;1.85;;
39140;SDS011;24875;48.436;10.298;2022-10-16T12:54:57;4.20;;;2.17;;
39140;SDS011;24875;48.436;10.298;2022-10-16T12:57:30;2.70;;;1.40;;
39140;SDS011;24875;48.436;10.298;2022-10-16T13:00:13;3.05;;;1.60;;
39140;SDS011;24875;48.436;10.298;2022-10-16T13:06:11;3.55;;;1.38;;
39140;SDS011;24875;48.436;10.298;2022-10-16T13:12:01;2.50;;;1.48;;
39140;SDS011;24875;48.436;10.298;2022-10-16T13:14:42;4.80;;;1.13;;
39140;SDS011;24875;48.436;10.298;2022-10-16T13:17:29;9.68;;;1.40;;
39140;SDS011;24875;48.436;10.298;2022-10-16T13:20:06;2.22;;;1.30;;
39140;SDS011;24875;48.436;10.298;2022-10-16T13:22:45;1.70;;;1.20;;
39140;SDS011;24875;48.436;10.298;2022-10-16T13:25:20;1.15;;;0.85;;
39140;SDS011;24875;48.436;10.298;2022-10-16T13:27:54;4.07;;;1.23;;
39140;SDS011;24875;48.436;10.298;2022-10-16T13:30:23;1.83;;;1.15;;
39140;SDS011;24875;48.436;10.298;2022-10-16T13:32:53;4.25;;;1.15;;
39140;SDS011;24875;48.436;10.298;2022-10-16T13:35:25;5.80;;;1.35;;
39140;SDS011;24875;48.436;10.298;2022-10-16T13:38:02;4.53;;;1.10;;
39140;SDS011;24875;48.436;10.298;2022-10-16T13:40:30;4.40;;;1.27;;
39140;SDS011;24875;48.436;10.298;2022-10-16T13:42:59;2.80;;;1.20;;
39140;SDS011;24875;48.436;10.298;2022-10-16T13:45:26;3.45;;;1.35;;
39140;SDS011;24875;48.436;10.298;2022-10-16T13:48:01;2.45;;;1.20;;
39140;SDS011;24875;48.436;10.298;2022-10-16T13:50:28;2.20;;;1.50;;
39140;SDS011;24875;48.436;10.298;2022-10-16T13:53:02;3.15;;;1.40;;
39140;SDS011;24875;48.436;10.298;2022-10-16T13:55:29;1.02;;;0.93;;
39140;SDS011;24875;48.436;10.298;2022-10-16T13:58:06;2.40;;;1.20;;
39140;SDS011;24875;48.436;10.298;2022-10-16T14:00:34;2.55;;;1.02;;
39140;SDS011;24875;48.436;10.298;2022-10-16T14:03:01;4.13;;;1.30;;
39140;SDS011;24875;48.436;10.298;2022-10-16T14:05:30;1.58;;;0.98;;
39140;SDS011;24875;48.436;10.298;2022-10-16T14:07:57;1.30;;;1.00;;
39140;SDS011;24875;48.436;10.298;2022-10-16T14:10:25;1.98;;;1.10;;
39140;SDS011;24875;48.436;10.298;2022-10-16T14:12:58;3.10;;;1.10;;
39140;SDS011;24875;48.436;10.298;2022-10-16T14:15:28;4.05;;;1.23;;
39140;SDS011;24875;48.436;10.298;2022-10-16T14:17:56;1.73;;;1.10;;
39140;SDS011;24875;48.436;10.298;2022-10-16T14:20:24;2.45;;;1.00;;
39140;SDS011;24875;48.436;10.298;2022-10-16T14:23:03;2.75;;;1.02;;
39140;SDS011;24875;48.436;10.298;2022-10-16T14:25:44;4.00;;;1.13;;
39140;SDS011;24875;48.436;10.298;2022-10-16T14:28:14;2.42;;;1.00;;
39140;SDS011;24875;48.436;10.298;2022-10-16T14:30:50;7.30;;;1.10;;
39140;SDS011;24875;48.436;10.298;2022-10-16T14:33:20;1.98;;;1.20;;
39140;SDS011;24875;48.436;10.298;2022-10-16T14:35:58;1.67;;;1.17;;
39140;SDS011;24875;48.436;10.298;2022-10-16T14:38:27;4.75;;;1.10;;
39140;SDS011;24875;48.436;10.298;2022-10-16T14:40:54;7.50;;;1.20;;
39140;SDS011;24875;48.436;10.298;2022-10-16T14:43:26;1.67;;;1.15;;
39140;SDS011;24875;48.436;10.298;2022-10-16T14:45:58;3.05;;;1.20;;
39140;SDS011;24875;48.436;10.298;2022-10-16T14:48:26;4.40;;;1.00;;
39140;SDS011;24875;48.436;10.298;2022-10-16T14:50:52;3.10;;;1.10;;
39140;SDS011;24875;48.436;10.298;2022-10-16T14:53:19;4.80;;;0.88;;
39140;SDS011;24875;48.436;10.298;2022-10-16T14:55:46;1.60;;;0.93;;
39140;SDS011;24875;48.436;10.298;2022-10-16T14:58:13;1.33;;;1.00;;
39140;SDS011;24875;48.436;10.298;2022-10-16T15:00:43;4.30;;;0.90;;
39140;SDS011;24875;48.436;10.298;2022-10-16T15:03:11;1.48;;;1.00;;
39140;SDS011;24875;48.436;10.298;2022-10-16T15:05:37;2.90;;;1.00;;